sensor_id;sensor_type;location;lat;lon;timestamp;temperature;humidity
11660;DHT22;5886;58.356;12.744;2022-07-23T00:02:24;14.60;99.90
11660;DHT22;5886;58.356;12.744;2022-07-23T00:04:49;14.60;99.90
11660;DHT22;5886;58.356;12.744;2022-07-23T00:07:16;14.50;99.90
11660;DHT22;5886;58.356;12.744;2022-07-23T00:09:42;14.60;99.90
11660;DHT22;5886;58.356;12.744;2022-07-23T00:12:07;14.50;99.90
11660;DHT22;5886;58.356;12.744;2022-07-23T00:14:33;14.60;99.90
11660;DHT22;5886;58.356;12.744;2022-07-23T00:16:59;14.50;99.90
11660;DHT22;5886;58.356;12.744;2022-07-23T00:19:25;14.50;99.90
11660;DHT22;5886;58.356;12.744;2022-07-23T00:21:51;14.50;99.90
11660;DHT22;5886;58.356;12.744;2022-07-23T00:24:17;14.50;99.90
11660;DHT22;5886;58.356;12.744;2022-07-23T00:26:43;14.50;99.90
11660;DHT22;5886;58.356;12.744;2022-07-23T00:29:08;14.50;99.90
11660;DHT22;5886;58.356;12.744;2022-07-23T00:31:34;14.50;99.90
11660;DHT22;5886;58.356;12.744;2022-07-23T00:34:00;14.40;99.90
11660;DHT22;5886;58.356;12.744;2022-07-23T00:36:29;14.50;99.90
11660;DHT22;5886;58.356;12.744;2022-07-23T00:38:57;14.50;99.90
11660;DHT22;5886;58.356;12.744;2022-07-23T00:41:22;14.50;99.90
11660;DHT22;5886;58.356;12.744;2022-07-23T00:43:48;14.50;99.90
11660;DHT22;5886;58.356;12.744;2022-07-23T00:46:22;14.50;99.90
11660;DHT22;5886;58.356;12.744;2022-07-23T00:48:48;14.50;99.90
11660;DHT22;5886;58.356;12.744;2022-07-23T00:51:17;14.50;99.90
11660;DHT22;5886;58.356;12.744;2022-07-23T00:53:44;14.50;99.90
11660;DHT22;5886;58.356;12.744;2022-07-23T00:56:10;14.50;99.90
11660;DHT22;5886;58.356;12.744;2022-07-23T00:58:36;14.50;99.90
11660;DHT22;5886;58.356;12.744;2022-07-23T01:01:04;14.40;99.90
11660;DHT22;5886;58.356;12.744;2022-07-23T01:03:30;14.40;99.90
11660;DHT22;5886;58.356;12.744;2022-07-23T01:05:56;14.50;99.90
11660;DHT22;5886;58.356;12.744;2022-07-23T01:08:22;14.50;99.90
11660;DHT22;5886;58.356;12.744;2022-07-23T01:10:49;14.50;99.90
11660;DHT22;5886;58.356;12.744;2022-07-23T01:13:16;14.50;99.90
11660;DHT22;5886;58.356;12.744;2022-07-23T01:15:42;14.50;99.90
11660;DHT22;5886;58.356;12.744;2022-07-23T01:18:08;14.50;99.90
11660;DHT22;5886;58.356;12.744;2022-07-23T01:20:35;14.50;99.90
11660;DHT22;5886;58.356;12.744;2022-07-23T01:23:01;14.50;99.90
11660;DHT22;5886;58.356;12.744;2022-07-23T01:25:27;14.50;99.90
11660;DHT22;5886;58.356;12.744;2022-07-23T01:27:53;14.50;99.90
11660;DHT22;5886;58.356;12.744;2022-07-23T01:30:19;14.60;99.90
11660;DHT22;5886;58.356;12.744;2022-07-23T01:32:45;14.60;99.90
11660;DHT22;5886;58.356;12.744;2022-07-23T01:35:11;14.60;99.90
11660;DHT22;5886;58.356;12.744;2022-07-23T01:37:37;14.60;99.90
11660;DHT22;5886;58.356;12.744;2022-07-23T01:40:04;14.60;99.90
11660;DHT22;5886;58.356;12.744;2022-07-23T01:42:30;14.60;99.90
11660;DHT22;5886;58.356;12.744;2022-07-23T01:44:56;14.60;99.90
11660;DHT22;5886;58.356;12.744;2022-07-23T01:47:22;14.60;99.90
11660;DHT22;5886;58.356;12.744;2022-07-23T01:49:48;14.60;99.90
11660;DHT22;5886;58.356;12.744;2022-07-23T01:52:14;14.60;99.90
11660;DHT22;5886;58.356;12.744;2022-07-23T01:54:40;14.60;99.90
11660;DHT22;5886;58.356;12.744;2022-07-23T01:57:07;14.60;99.90
11660;DHT22;5886;58.356;12.744;2022-07-23T01:59:33;14.60;99.90
11660;DHT22;5886;58.356;12.744;2022-07-23T02:01:59;14.60;99.90
11660;DHT22;5886;58.356;12.744;2022-07-23T02:04:25;14.60;99.90
11660;DHT22;5886;58.356;12.744;2022-07-23T02:06:52;14.60;99.90
11660;DHT22;5886;58.356;12.744;2022-07-23T02:09:18;14.60;99.90
11660;DHT22;5886;58.356;12.744;2022-07-23T02:11:45;14.60;99.90
11660;DHT22;5886;58.356;12.744;2022-07-23T02:14:11;14.60;99.90
11660;DHT22;5886;58.356;12.744;2022-07-23T02:16:36;14.60;99.90
11660;DHT22;5886;58.356;12.744;2022-07-23T02:19:03;14.70;99.90
11660;DHT22;5886;58.356;12.744;2022-07-23T02:21:29;14.70;99.90
11660;DHT22;5886;58.356;12.744;2022-07-23T02:23:55;14.70;99.90
11660;DHT22;5886;58.356;12.744;2022-07-23T02:26:21;14.70;99.90
11660;DHT22;5886;58.356;12.744;2022-07-23T02:28:47;14.70;99.90
11660;DHT22;5886;58.356;12.744;2022-07-23T02:31:13;14.60;99.90
11660;DHT22;5886;58.356;12.744;2022-07-23T02:33:39;14.60;99.90
11660;DHT22;5886;58.356;12.744;2022-07-23T02:36:05;14.60;99.90
11660;DHT22;5886;58.356;12.744;2022-07-23T02:38:31;14.60;99.90
11660;DHT22;5886;58.356;12.744;2022-07-23T02:40:57;14.60;99.90
11660;DHT22;5886;58.356;12.744;2022-07-23T02:43:23;14.60;99.90
11660;DHT22;5886;58.356;12.744;2022-07-23T02:45:49;14.60;99.90
11660;DHT22;5886;58.356;12.744;2022-07-23T02:48:15;14.60;99.90
11660;DHT22;5886;58.356;12.744;2022-07-23T02:50:40;14.60;99.90
11660;DHT22;5886;58.356;12.744;2022-07-23T02:53:06;14.60;99.90
11660;DHT22;5886;58.356;12.744;2022-07-23T02:55:32;14.60;99.90
11660;DHT22;5886;58.356;12.744;2022-07-23T02:57:58;14.60;99.90
11660;DHT22;5886;58.356;12.744;2022-07-23T03:00:24;14.60;99.90
11660;DHT22;5886;58.356;12.744;2022-07-23T03:02:50;14.70;99.90
11660;DHT22;5886;58.356;12.744;2022-07-23T03:05:16;14.70;99.90
11660;DHT22;5886;58.356;12.744;2022-07-23T03:07:42;14.70;99.90
11660;DHT22;5886;58.356;12.744;2022-07-23T03:10:08;14.70;99.90
11660;DHT22;5886;58.356;12.744;2022-07-23T03:12:34;14.70;99.90
11660;DHT22;5886;58.356;12.744;2022-07-23T03:15:00;14.70;99.90
11660;DHT22;5886;58.356;12.744;2022-07-23T03:17:25;14.70;99.90
11660;DHT22;5886;58.356;12.744;2022-07-23T03:19:51;14.70;99.90
11660;DHT22;5886;58.356;12.744;2022-07-23T03:22:17;14.80;99.90
11660;DHT22;5886;58.356;12.744;2022-07-23T03:24:43;14.80;99.90
11660;DHT22;5886;58.356;12.744;2022-07-23T03:27:26;14.80;99.90
11660;DHT22;5886;58.356;12.744;2022-07-23T03:29:55;14.80;99.90
11660;DHT22;5886;58.356;12.744;2022-07-23T03:32:22;14.80;99.90
11660;DHT22;5886;58.356;12.744;2022-07-23T03:34:48;14.80;99.90
11660;DHT22;5886;58.356;12.744;2022-07-23T03:37:14;14.80;99.90
11660;DHT22;5886;58.356;12.744;2022-07-23T03:39:40;14.90;99.90
11660;DHT22;5886;58.356;12.744;2022-07-23T03:42:06;14.90;99.90
11660;DHT22;5886;58.356;12.744;2022-07-23T03:44:32;14.90;99.90
11660;DHT22;5886;58.356;12.744;2022-07-23T03:46:58;14.90;99.90
11660;DHT22;5886;58.356;12.744;2022-07-23T03:49:24;14.90;99.90
11660;DHT22;5886;58.356;12.744;2022-07-23T03:51:50;14.90;99.90
11660;DHT22;5886;58.356;12.744;2022-07-23T03:54:16;14.90;99.90
11660;DHT22;5886;58.356;12.744;2022-07-23T03:56:42;14.90;99.90
11660;DHT22;5886;58.356;12.744;2022-07-23T03:59:08;14.90;99.90
11660;DHT22;5886;58.356;12.744;2022-07-23T04:01:35;14.90;99.90
11660;DHT22;5886;58.356;12.744;2022-07-23T04:04:01;14.90;99.90
11660;DHT22;5886;58.356;12.744;2022-07-23T04:06:27;14.90;99.90
11660;DHT22;5886;58.356;12.744;2022-07-23T04:08:53;14.90;99.90
11660;DHT22;5886;58.356;12.744;2022-07-23T04:11:19;14.90;99.90
11660;DHT22;5886;58.356;12.744;2022-07-23T04:13:45;15.00;99.90
11660;DHT22;5886;58.356;12.744;2022-07-23T04:16:12;15.00;99.90
11660;DHT22;5886;58.356;12.744;2022-07-23T04:18:38;15.10;99.90
11660;DHT22;5886;58.356;12.744;2022-07-23T04:21:04;15.10;99.90
11660;DHT22;5886;58.356;12.744;2022-07-23T04:23:30;15.10;99.90
11660;DHT22;5886;58.356;12.744;2022-07-23T04:25:56;15.20;99.90
11660;DHT22;5886;58.356;12.744;2022-07-23T04:28:21;15.30;99.90
11660;DHT22;5886;58.356;12.744;2022-07-23T04:30:48;15.30;99.90
11660;DHT22;5886;58.356;12.744;2022-07-23T04:33:13;15.30;99.90
11660;DHT22;5886;58.356;12.744;2022-07-23T04:35:39;15.40;99.90
11660;DHT22;5886;58.356;12.744;2022-07-23T04:38:05;15.40;99.90
11660;DHT22;5886;58.356;12.744;2022-07-23T04:40:31;15.40;99.90
11660;DHT22;5886;58.356;12.744;2022-07-23T04:42:58;15.40;99.90
11660;DHT22;5886;58.356;12.744;2022-07-23T04:45:24;15.50;99.90
11660;DHT22;5886;58.356;12.744;2022-07-23T04:47:50;15.50;99.90
11660;DHT22;5886;58.356;12.744;2022-07-23T04:50:16;15.50;99.90
11660;DHT22;5886;58.356;12.744;2022-07-23T04:52:47;15.50;99.90
11660;DHT22;5886;58.356;12.744;2022-07-23T04:55:13;15.60;99.90
11660;DHT22;5886;58.356;12.744;2022-07-23T04:57:38;15.60;99.90
11660;DHT22;5886;58.356;12.744;2022-07-23T05:00:05;15.60;99.90
11660;DHT22;5886;58.356;12.744;2022-07-23T05:02:31;15.60;99.90
11660;DHT22;5886;58.356;12.744;2022-07-23T05:04:57;15.70;99.90
11660;DHT22;5886;58.356;12.744;2022-07-23T05:07:22;15.70;99.90
11660;DHT22;5886;58.356;12.744;2022-07-23T05:09:48;15.60;99.90
11660;DHT22;5886;58.356;12.744;2022-07-23T05:12:14;15.60;99.90
11660;DHT22;5886;58.356;12.744;2022-07-23T05:14:40;15.70;99.90
11660;DHT22;5886;58.356;12.744;2022-07-23T05:17:07;15.60;99.90
11660;DHT22;5886;58.356;12.744;2022-07-23T05:19:34;15.60;99.90
11660;DHT22;5886;58.356;12.744;2022-07-23T05:22:01;15.60;99.90
11660;DHT22;5886;58.356;12.744;2022-07-23T05:24:27;15.60;99.90
11660;DHT22;5886;58.356;12.744;2022-07-23T05:26:52;15.50;99.90
11660;DHT22;5886;58.356;12.744;2022-07-23T05:29:18;15.40;99.90
11660;DHT22;5886;58.356;12.744;2022-07-23T05:31:44;15.50;99.90
11660;DHT22;5886;58.356;12.744;2022-07-23T05:34:10;15.50;99.90
11660;DHT22;5886;58.356;12.744;2022-07-23T05:36:36;15.50;99.90
11660;DHT22;5886;58.356;12.744;2022-07-23T05:39:03;15.60;99.90
11660;DHT22;5886;58.356;12.744;2022-07-23T05:41:29;15.60;99.90
11660;DHT22;5886;58.356;12.744;2022-07-23T05:43:54;15.50;99.90
11660;DHT22;5886;58.356;12.744;2022-07-23T05:46:20;15.50;99.90
11660;DHT22;5886;58.356;12.744;2022-07-23T05:48:46;15.50;99.90
11660;DHT22;5886;58.356;12.744;2022-07-23T05:51:20;15.50;99.90
11660;DHT22;5886;58.356;12.744;2022-07-23T05:53:46;15.50;99.90
11660;DHT22;5886;58.356;12.744;2022-07-23T05:56:12;15.50;99.90
11660;DHT22;5886;58.356;12.744;2022-07-23T05:58:38;15.50;99.90
11660;DHT22;5886;58.356;12.744;2022-07-23T06:01:04;15.50;99.90
11660;DHT22;5886;58.356;12.744;2022-07-23T06:03:30;15.60;99.90
11660;DHT22;5886;58.356;12.744;2022-07-23T06:05:56;15.60;99.90
11660;DHT22;5886;58.356;12.744;2022-07-23T06:08:22;15.70;99.90
11660;DHT22;5886;58.356;12.744;2022-07-23T06:10:48;15.70;99.90
11660;DHT22;5886;58.356;12.744;2022-07-23T06:13:15;15.70;99.90
11660;DHT22;5886;58.356;12.744;2022-07-23T06:15:42;15.80;99.90
11660;DHT22;5886;58.356;12.744;2022-07-23T06:18:08;15.80;99.90
11660;DHT22;5886;58.356;12.744;2022-07-23T06:20:34;15.70;99.90
11660;DHT22;5886;58.356;12.744;2022-07-23T06:23:00;15.70;99.90
11660;DHT22;5886;58.356;12.744;2022-07-23T06:25:27;15.70;99.90
11660;DHT22;5886;58.356;12.744;2022-07-23T06:27:52;15.70;99.90
11660;DHT22;5886;58.356;12.744;2022-07-23T06:30:18;15.80;99.90
11660;DHT22;5886;58.356;12.744;2022-07-23T06:32:48;15.80;99.90
11660;DHT22;5886;58.356;12.744;2022-07-23T06:35:15;15.80;99.90
11660;DHT22;5886;58.356;12.744;2022-07-23T06:37:42;15.80;99.90
11660;DHT22;5886;58.356;12.744;2022-07-23T06:40:08;15.80;99.90
11660;DHT22;5886;58.356;12.744;2022-07-23T06:42:34;15.80;99.90
11660;DHT22;5886;58.356;12.744;2022-07-23T06:45:03;15.80;99.90
11660;DHT22;5886;58.356;12.744;2022-07-23T06:47:29;15.80;99.90
11660;DHT22;5886;58.356;12.744;2022-07-23T06:49:55;15.80;99.90
11660;DHT22;5886;58.356;12.744;2022-07-23T06:52:21;15.80;99.90
11660;DHT22;5886;58.356;12.744;2022-07-23T06:54:47;15.80;99.90
11660;DHT22;5886;58.356;12.744;2022-07-23T06:57:13;15.80;99.90
11660;DHT22;5886;58.356;12.744;2022-07-23T06:59:39;15.90;99.90
11660;DHT22;5886;58.356;12.744;2022-07-23T07:02:07;15.80;99.90
11660;DHT22;5886;58.356;12.744;2022-07-23T07:04:33;15.80;99.90
11660;DHT22;5886;58.356;12.744;2022-07-23T07:06:58;15.90;99.90
11660;DHT22;5886;58.356;12.744;2022-07-23T07:09:24;15.90;99.90
11660;DHT22;5886;58.356;12.744;2022-07-23T07:11:50;15.90;99.90
11660;DHT22;5886;58.356;12.744;2022-07-23T07:14:16;15.90;99.90
11660;DHT22;5886;58.356;12.744;2022-07-23T07:16:42;15.80;99.90
11660;DHT22;5886;58.356;12.744;2022-07-23T07:19:09;15.90;99.90
11660;DHT22;5886;58.356;12.744;2022-07-23T07:21:35;15.90;99.90
11660;DHT22;5886;58.356;12.744;2022-07-23T07:24:02;15.90;99.90
11660;DHT22;5886;58.356;12.744;2022-07-23T07:26:28;15.90;99.90
11660;DHT22;5886;58.356;12.744;2022-07-23T07:28:56;15.90;99.90
11660;DHT22;5886;58.356;12.744;2022-07-23T07:31:22;15.70;99.90
11660;DHT22;5886;58.356;12.744;2022-07-23T07:33:48;15.80;99.90
11660;DHT22;5886;58.356;12.744;2022-07-23T07:36:14;15.80;99.90
11660;DHT22;5886;58.356;12.744;2022-07-23T07:38:40;15.90;99.90
11660;DHT22;5886;58.356;12.744;2022-07-23T07:41:07;15.90;99.90
11660;DHT22;5886;58.356;12.744;2022-07-23T07:43:36;16.00;99.90
11660;DHT22;5886;58.356;12.744;2022-07-23T07:46:03;16.00;99.90
11660;DHT22;5886;58.356;12.744;2022-07-23T07:48:30;16.10;99.90
11660;DHT22;5886;58.356;12.744;2022-07-23T07:50:55;16.10;99.90
11660;DHT22;5886;58.356;12.744;2022-07-23T07:53:21;16.20;99.90
11660;DHT22;5886;58.356;12.744;2022-07-23T07:55:47;16.20;99.90
11660;DHT22;5886;58.356;12.744;2022-07-23T07:58:14;16.10;99.90
11660;DHT22;5886;58.356;12.744;2022-07-23T08:00:40;16.10;99.90
11660;DHT22;5886;58.356;12.744;2022-07-23T08:03:12;16.10;99.90
11660;DHT22;5886;58.356;12.744;2022-07-23T08:05:38;16.10;99.90
11660;DHT22;5886;58.356;12.744;2022-07-23T08:08:07;16.10;99.90
11660;DHT22;5886;58.356;12.744;2022-07-23T08:10:40;16.20;99.90
11660;DHT22;5886;58.356;12.744;2022-07-23T08:13:06;16.20;99.90
11660;DHT22;5886;58.356;12.744;2022-07-23T08:15:34;16.10;99.90
11660;DHT22;5886;58.356;12.744;2022-07-23T08:18:02;16.10;99.90
11660;DHT22;5886;58.356;12.744;2022-07-23T08:20:51;16.00;99.90
11660;DHT22;5886;58.356;12.744;2022-07-23T08:23:19;16.10;99.90
11660;DHT22;5886;58.356;12.744;2022-07-23T08:25:57;16.10;99.90
11660;DHT22;5886;58.356;12.744;2022-07-23T08:28:25;16.10;99.90
11660;DHT22;5886;58.356;12.744;2022-07-23T08:30:51;16.20;99.90
11660;DHT22;5886;58.356;12.744;2022-07-23T08:33:21;16.20;99.90
11660;DHT22;5886;58.356;12.744;2022-07-23T08:36:07;16.30;99.90
11660;DHT22;5886;58.356;12.744;2022-07-23T08:38:39;16.40;99.90
11660;DHT22;5886;58.356;12.744;2022-07-23T08:41:11;16.40;99.90
11660;DHT22;5886;58.356;12.744;2022-07-23T08:43:37;16.60;99.90
11660;DHT22;5886;58.356;12.744;2022-07-23T08:46:04;16.60;99.90
11660;DHT22;5886;58.356;12.744;2022-07-23T08:48:35;16.60;99.90
11660;DHT22;5886;58.356;12.744;2022-07-23T08:51:05;16.70;99.90
11660;DHT22;5886;58.356;12.744;2022-07-23T08:53:33;16.70;99.90
11660;DHT22;5886;58.356;12.744;2022-07-23T08:56:01;16.70;99.90
11660;DHT22;5886;58.356;12.744;2022-07-23T08:58:31;16.70;99.90
11660;DHT22;5886;58.356;12.744;2022-07-23T09:00:57;16.70;99.90
11660;DHT22;5886;58.356;12.744;2022-07-23T09:03:35;16.70;99.90
11660;DHT22;5886;58.356;12.744;2022-07-23T09:06:04;16.60;99.90
11660;DHT22;5886;58.356;12.744;2022-07-23T09:08:43;16.70;99.90
11660;DHT22;5886;58.356;12.744;2022-07-23T09:11:12;16.70;99.90
11660;DHT22;5886;58.356;12.744;2022-07-23T09:13:48;16.70;99.90
11660;DHT22;5886;58.356;12.744;2022-07-23T09:16:17;16.80;99.90
11660;DHT22;5886;58.356;12.744;2022-07-23T09:18:59;16.80;99.90
11660;DHT22;5886;58.356;12.744;2022-07-23T09:24:05;16.90;99.90
11660;DHT22;5886;58.356;12.744;2022-07-23T09:32:00;17.10;99.90
11660;DHT22;5886;58.356;12.744;2022-07-23T09:34:32;17.20;99.90
11660;DHT22;5886;58.356;12.744;2022-07-23T09:37:10;17.20;99.90
11660;DHT22;5886;58.356;12.744;2022-07-23T09:39:36;17.20;99.90
11660;DHT22;5886;58.356;12.744;2022-07-23T09:42:19;17.30;99.90
11660;DHT22;5886;58.356;12.744;2022-07-23T09:44:56;17.30;99.90
11660;DHT22;5886;58.356;12.744;2022-07-23T09:47:26;17.30;99.90
11660;DHT22;5886;58.356;12.744;2022-07-23T09:50:08;17.40;99.90
11660;DHT22;5886;58.356;12.744;2022-07-23T09:52:49;17.40;99.90
11660;DHT22;5886;58.356;12.744;2022-07-23T09:55:17;17.30;99.90
11660;DHT22;5886;58.356;12.744;2022-07-23T09:57:44;17.30;99.90
11660;DHT22;5886;58.356;12.744;2022-07-23T10:00:16;17.20;99.90
11660;DHT22;5886;58.356;12.744;2022-07-23T10:02:47;17.20;99.90
11660;DHT22;5886;58.356;12.744;2022-07-23T10:05:15;17.10;99.90
11660;DHT22;5886;58.356;12.744;2022-07-23T10:07:42;17.00;99.90
11660;DHT22;5886;58.356;12.744;2022-07-23T10:10:10;17.00;99.90
11660;DHT22;5886;58.356;12.744;2022-07-23T10:12:37;17.00;99.90
11660;DHT22;5886;58.356;12.744;2022-07-23T10:15:06;16.90;99.90
11660;DHT22;5886;58.356;12.744;2022-07-23T10:17:36;16.90;99.90
11660;DHT22;5886;58.356;12.744;2022-07-23T10:24:16;16.80;99.90
11660;DHT22;5886;58.356;12.744;2022-07-23T10:27:02;17.00;99.90
11660;DHT22;5886;58.356;12.744;2022-07-23T10:29:55;17.20;99.90
11660;DHT22;5886;58.356;12.744;2022-07-23T10:35:31;17.50;99.90
11660;DHT22;5886;58.356;12.744;2022-07-23T10:40:36;17.90;99.90
11660;DHT22;5886;58.356;12.744;2022-07-23T10:43:15;18.00;99.90
11660;DHT22;5886;58.356;12.744;2022-07-23T10:46:23;18.20;99.90
11660;DHT22;5886;58.356;12.744;2022-07-23T10:49:27;18.30;99.90
11660;DHT22;5886;58.356;12.744;2022-07-23T10:52:22;18.50;99.90
11660;DHT22;5886;58.356;12.744;2022-07-23T10:57:48;18.80;99.90
11660;DHT22;5886;58.356;12.744;2022-07-23T11:00:22;18.80;99.90
11660;DHT22;5886;58.356;12.744;2022-07-23T11:02:57;18.70;99.90
11660;DHT22;5886;58.356;12.744;2022-07-23T11:05:45;18.70;99.90
11660;DHT22;5886;58.356;12.744;2022-07-23T11:08:13;18.70;99.90
11660;DHT22;5886;58.356;12.744;2022-07-23T11:10:46;18.80;99.90
11660;DHT22;5886;58.356;12.744;2022-07-23T11:24:00;18.90;99.90
11660;DHT22;5886;58.356;12.744;2022-07-23T11:34:46;18.80;99.90
11660;DHT22;5886;58.356;12.744;2022-07-23T11:37:33;18.90;99.90
11660;DHT22;5886;58.356;12.744;2022-07-23T11:40:02;18.80;99.90
11660;DHT22;5886;58.356;12.744;2022-07-23T11:42:28;18.80;99.90
11660;DHT22;5886;58.356;12.744;2022-07-23T11:44:54;19.00;99.90
11660;DHT22;5886;58.356;12.744;2022-07-23T11:47:32;19.00;99.90
11660;DHT22;5886;58.356;12.744;2022-07-23T11:50:04;18.80;99.90
11660;DHT22;5886;58.356;12.744;2022-07-23T11:52:32;18.80;99.90
11660;DHT22;5886;58.356;12.744;2022-07-23T11:55:04;18.70;99.90
11660;DHT22;5886;58.356;12.744;2022-07-23T11:57:34;18.60;99.90
11660;DHT22;5886;58.356;12.744;2022-07-23T12:00:17;18.50;99.90
11660;DHT22;5886;58.356;12.744;2022-07-23T12:02:52;18.50;99.90
11660;DHT22;5886;58.356;12.744;2022-07-23T12:07:55;18.40;99.90
11660;DHT22;5886;58.356;12.744;2022-07-23T12:10:22;18.50;99.90
11660;DHT22;5886;58.356;12.744;2022-07-23T12:12:54;18.50;99.90
11660;DHT22;5886;58.356;12.744;2022-07-23T12:15:44;18.60;99.90
11660;DHT22;5886;58.356;12.744;2022-07-23T12:18:10;18.60;99.90
11660;DHT22;5886;58.356;12.744;2022-07-23T12:20:50;18.50;99.90
11660;DHT22;5886;58.356;12.744;2022-07-23T12:23:18;18.50;99.90
11660;DHT22;5886;58.356;12.744;2022-07-23T12:25:45;18.30;99.90
11660;DHT22;5886;58.356;12.744;2022-07-23T12:28:17;18.10;99.90
11660;DHT22;5886;58.356;12.744;2022-07-23T12:30:45;18.10;99.90
11660;DHT22;5886;58.356;12.744;2022-07-23T12:33:24;18.10;99.90
11660;DHT22;5886;58.356;12.744;2022-07-23T12:35:51;18.10;99.90
11660;DHT22;5886;58.356;12.744;2022-07-23T12:38:19;18.10;99.90
11660;DHT22;5886;58.356;12.744;2022-07-23T12:40:48;18.20;99.90
11660;DHT22;5886;58.356;12.744;2022-07-23T12:43:29;18.30;99.90
11660;DHT22;5886;58.356;12.744;2022-07-23T12:46:08;18.30;99.90
11660;DHT22;5886;58.356;12.744;2022-07-23T12:48:53;18.30;99.90
11660;DHT22;5886;58.356;12.744;2022-07-23T12:51:31;18.40;99.90
11660;DHT22;5886;58.356;12.744;2022-07-23T12:54:04;18.40;99.90
11660;DHT22;5886;58.356;12.744;2022-07-23T12:56:32;18.50;99.90
11660;DHT22;5886;58.356;12.744;2022-07-23T12:59:06;18.60;99.90
11660;DHT22;5886;58.356;12.744;2022-07-23T13:01:40;18.70;99.90
11660;DHT22;5886;58.356;12.744;2022-07-23T13:04:29;18.90;99.90
11660;DHT22;5886;58.356;12.744;2022-07-23T13:06:58;19.30;99.90
11660;DHT22;5886;58.356;12.744;2022-07-23T13:13:22;19.60;99.90
11660;DHT22;5886;58.356;12.744;2022-07-23T13:15:52;19.70;99.90
11660;DHT22;5886;58.356;12.744;2022-07-23T13:18:49;19.80;99.90
11660;DHT22;5886;58.356;12.744;2022-07-23T13:21:15;19.80;99.90
11660;DHT22;5886;58.356;12.744;2022-07-23T13:23:42;19.80;99.90
11660;DHT22;5886;58.356;12.744;2022-07-23T13:26:11;19.80;99.90
11660;DHT22;5886;58.356;12.744;2022-07-23T13:28:37;19.90;99.90
11660;DHT22;5886;58.356;12.744;2022-07-23T13:31:11;19.80;99.90
11660;DHT22;5886;58.356;12.744;2022-07-23T13:33:37;19.60;99.90
11660;DHT22;5886;58.356;12.744;2022-07-23T13:36:03;19.50;99.90
11660;DHT22;5886;58.356;12.744;2022-07-23T13:38:29;19.40;99.90
11660;DHT22;5886;58.356;12.744;2022-07-23T13:40:55;19.30;99.90
11660;DHT22;5886;58.356;12.744;2022-07-23T13:43:24;19.30;99.90
11660;DHT22;5886;58.356;12.744;2022-07-23T13:45:51;19.20;99.90
11660;DHT22;5886;58.356;12.744;2022-07-23T13:48:18;19.20;99.90
11660;DHT22;5886;58.356;12.744;2022-07-23T13:50:46;19.40;99.90
11660;DHT22;5886;58.356;12.744;2022-07-23T13:53:21;19.80;99.90
11660;DHT22;5886;58.356;12.744;2022-07-23T13:55:49;20.20;99.90
11660;DHT22;5886;58.356;12.744;2022-07-23T13:58:15;20.40;99.90
11660;DHT22;5886;58.356;12.744;2022-07-23T14:00:44;20.90;99.90
11660;DHT22;5886;58.356;12.744;2022-07-23T14:03:10;21.30;99.90
11660;DHT22;5886;58.356;12.744;2022-07-23T14:05:36;21.80;99.90
11660;DHT22;5886;58.356;12.744;2022-07-23T14:08:03;22.20;99.90
11660;DHT22;5886;58.356;12.744;2022-07-23T14:10:29;22.40;99.90
11660;DHT22;5886;58.356;12.744;2022-07-23T14:12:55;22.50;99.90
11660;DHT22;5886;58.356;12.744;2022-07-23T14:15:27;22.20;99.90
11660;DHT22;5886;58.356;12.744;2022-07-23T14:17:54;22.00;99.90
11660;DHT22;5886;58.356;12.744;2022-07-23T14:20:21;21.80;99.90
11660;DHT22;5886;58.356;12.744;2022-07-23T14:22:47;21.90;99.90
11660;DHT22;5886;58.356;12.744;2022-07-23T14:25:14;22.00;99.90
11660;DHT22;5886;58.356;12.744;2022-07-23T14:27:40;22.20;99.90
11660;DHT22;5886;58.356;12.744;2022-07-23T14:30:08;22.00;99.90
11660;DHT22;5886;58.356;12.744;2022-07-23T14:32:35;21.60;99.90
11660;DHT22;5886;58.356;12.744;2022-07-23T14:35:01;21.30;99.90
11660;DHT22;5886;58.356;12.744;2022-07-23T14:37:27;21.30;99.90
11660;DHT22;5886;58.356;12.744;2022-07-23T14:39:53;21.00;99.90
11660;DHT22;5886;58.356;12.744;2022-07-23T14:42:19;20.90;99.90
11660;DHT22;5886;58.356;12.744;2022-07-23T14:44:45;20.70;99.90
11660;DHT22;5886;58.356;12.744;2022-07-23T14:47:13;20.80;99.90
11660;DHT22;5886;58.356;12.744;2022-07-23T14:49:39;20.80;99.90
11660;DHT22;5886;58.356;12.744;2022-07-23T14:52:06;20.80;99.90
11660;DHT22;5886;58.356;12.744;2022-07-23T14:54:32;20.80;99.90
11660;DHT22;5886;58.356;12.744;2022-07-23T14:57:00;21.00;99.90
11660;DHT22;5886;58.356;12.744;2022-07-23T14:59:26;21.20;99.90
11660;DHT22;5886;58.356;12.744;2022-07-23T15:01:53;21.20;99.90
11660;DHT22;5886;58.356;12.744;2022-07-23T15:04:20;21.30;99.90
11660;DHT22;5886;58.356;12.744;2022-07-23T15:06:47;21.30;99.90
11660;DHT22;5886;58.356;12.744;2022-07-23T15:09:13;21.30;99.90
11660;DHT22;5886;58.356;12.744;2022-07-23T15:11:40;21.20;99.90
11660;DHT22;5886;58.356;12.744;2022-07-23T15:14:06;21.40;99.90
11660;DHT22;5886;58.356;12.744;2022-07-23T15:16:33;21.50;99.90
11660;DHT22;5886;58.356;12.744;2022-07-23T15:18:59;21.40;99.90
11660;DHT22;5886;58.356;12.744;2022-07-23T15:21:25;21.60;99.90
11660;DHT22;5886;58.356;12.744;2022-07-23T15:23:51;21.80;99.90
11660;DHT22;5886;58.356;12.744;2022-07-23T15:26:29;21.90;99.90
11660;DHT22;5886;58.356;12.744;2022-07-23T15:28:55;21.80;99.90
11660;DHT22;5886;58.356;12.744;2022-07-23T15:31:21;21.70;99.90
11660;DHT22;5886;58.356;12.744;2022-07-23T15:33:54;21.60;99.90
11660;DHT22;5886;58.356;12.744;2022-07-23T15:40:06;21.60;99.90
11660;DHT22;5886;58.356;12.744;2022-07-23T15:42:33;21.10;99.90
11660;DHT22;5886;58.356;12.744;2022-07-23T15:44:58;20.70;99.90
11660;DHT22;5886;58.356;12.744;2022-07-23T15:47:24;20.60;99.90
11660;DHT22;5886;58.356;12.744;2022-07-23T15:49:50;20.50;99.90
11660;DHT22;5886;58.356;12.744;2022-07-23T15:52:16;20.30;99.90
11660;DHT22;5886;58.356;12.744;2022-07-23T15:54:42;20.50;99.90
11660;DHT22;5886;58.356;12.744;2022-07-23T15:57:08;20.70;99.90
11660;DHT22;5886;58.356;12.744;2022-07-23T16:00:09;20.70;99.90
11660;DHT22;5886;58.356;12.744;2022-07-23T16:02:46;20.70;99.90
11660;DHT22;5886;58.356;12.744;2022-07-23T16:05:18;20.70;99.90
11660;DHT22;5886;58.356;12.744;2022-07-23T16:07:44;20.60;99.90
11660;DHT22;5886;58.356;12.744;2022-07-23T16:26:06;20.40;99.90
11660;DHT22;5886;58.356;12.744;2022-07-23T16:28:46;20.60;99.90
11660;DHT22;5886;58.356;12.744;2022-07-23T16:31:27;20.40;99.90
11660;DHT22;5886;58.356;12.744;2022-07-23T16:33:53;20.40;99.90
11660;DHT22;5886;58.356;12.744;2022-07-23T16:36:20;20.40;99.90
11660;DHT22;5886;58.356;12.744;2022-07-23T16:38:47;20.30;99.90
11660;DHT22;5886;58.356;12.744;2022-07-23T16:41:15;20.40;99.90
11660;DHT22;5886;58.356;12.744;2022-07-23T16:43:47;20.50;99.90
11660;DHT22;5886;58.356;12.744;2022-07-23T16:46:13;20.70;99.90